Time;durP1;ratioP1;P1;durP2;ratioP2;P2;SDS_P1;SDS_P2;PMS_P1;PMS_P2;Temp;Humidity;BMP_temperature;BMP_pressure;BME280_temperature;BME280_humidity;BME280_pressure;Samples;Min_cycle;Max_cycle;Signal;HPM_P1;HPM_P2
2021/03/11 00:00:30;;;;;;;43.63;20.63;;;;;;;2.85;100.00;97373.34;5075786;28;20124;-78
2021/03/11 00:02:57;;;;;;;44.92;21.20;;;;;;;2.88;100.00;97372.81;5041062;28;20053;-78
2021/03/11 00:05:24;;;;;;;45.63;20.88;;;;;;;2.86;100.00;97382.16;5055815;28;20056;-78
2021/03/11 00:07:50;;;;;;;46.38;20.98;;;;;;;2.85;100.00;97361.84;5055202;28;20120;-78
2021/03/11 00:10:16;;;;;;;45.72;20.63;;;;;;;2.94;100.00;97371.69;5073793;28;20067;-78
2021/03/11 00:12:44;;;;;;;41.72;19.63;;;;;;;2.96;100.00;97372.25;5055994;28;20056;-78
2021/03/11 00:15:15;;;;;;;43.67;19.95;;;;;;;3.03;100.00;97371.94;5071672;28;20062;-78
2021/03/11 00:17:41;;;;;;;42.38;20.30;;;;;;;3.02;100.00;97357.78;5038942;28;20052;-78
2021/03/11 00:20:13;;;;;;;47.17;21.75;;;;;;;3.02;100.00;97351.66;5063502;28;20094;-78
2021/03/11 00:22:46;;;;;;;46.70;21.35;;;;;;;3.02;100.00;97351.66;5054476;28;20245;-77
2021/03/11 00:25:14;;;;;;;44.60;21.30;;;;;;;3.04;100.00;97354.84;5036860;28;20063;-77
2021/03/11 00:27:42;;;;;;;44.78;20.90;;;;;;;3.02;100.00;97340.94;5053212;28;20041;-78
2021/03/11 00:30:11;;;;;;;44.15;21.00;;;;;;;3.06;100.00;97340.13;5055781;28;20736;-80
2021/03/11 00:32:38;;;;;;;44.80;21.02;;;;;;;3.09;100.00;97334.22;5037243;28;20052;-79
2021/03/11 00:35:07;;;;;;;44.08;20.10;;;;;;;3.12;100.00;97319.50;5072174;28;20465;-78
2021/03/11 00:37:33;;;;;;;43.95;19.92;;;;;;;3.20;100.00;97304.75;5035813;28;20059;-77
2021/03/11 00:39:59;;;;;;;44.78;21.25;;;;;;;3.20;100.00;97307.44;5052589;28;20091;-77
2021/03/11 00:42:26;;;;;;;47.75;21.42;;;;;;;3.22;100.00;97307.97;5054082;28;20533;-78
2021/03/11 00:44:52;;;;;;;45.88;20.73;;;;;;;3.25;100.00;97302.06;5072694;28;20040;-78
2021/03/11 00:47:20;;;;;;;41.20;18.92;;;;;;;3.25;100.00;97291.38;5070625;28;20055;-78
2021/03/11 00:49:47;;;;;;;40.50;20.23;;;;;;;3.26;100.00;97301.78;5053706;28;20068;-78
2021/03/11 00:52:13;;;;;;;41.92;19.88;;;;;;;3.22;100.00;97290.03;5072613;28;20060;-78
2021/03/11 00:54:40;;;;;;;43.22;20.20;;;;;;;3.23;100.00;97283.59;5072989;28;20036;-79
2021/03/11 00:57:07;;;;;;;45.55;20.48;;;;;;;3.21;100.00;97296.44;5055146;28;20052;-79
2021/03/11 00:59:34;;;;;;;43.30;20.73;;;;;;;3.26;100.00;97284.91;5058809;28;20045;-78
2021/03/11 01:02:01;;;;;;;43.13;19.75;;;;;;;3.21;100.00;97285.75;5042749;28;20045;-78
2021/03/11 01:04:27;;;;;;;42.95;19.92;;;;;;;3.25;100.00;97273.44;5057714;28;20048;-78
2021/03/11 01:06:55;;;;;;;41.17;19.60;;;;;;;3.28;100.00;97278.22;5044119;28;20223;-79
2021/03/11 01:09:21;;;;;;;45.47;20.13;;;;;;;3.28;100.00;97269.41;5057765;28;20143;-78
2021/03/11 01:11:48;;;;;;;44.47;20.52;;;;;;;3.34;100.00;97253.03;5059624;28;20072;-77
2021/03/11 01:14:14;;;;;;;45.75;20.75;;;;;;;3.38;100.00;97246.06;5059808;28;20041;-78
2021/03/11 01:16:50;;;;;;;42.55;20.10;;;;;;;3.41;100.00;97237.47;5041952;28;20053;-79
2021/03/11 01:19:17;;;;;;;41.08;19.77;;;;;;;3.48;100.00;97231.81;5078793;28;20102;-78
2021/03/11 01:21:43;;;;;;;44.47;20.08;;;;;;;3.53;100.00;97239.81;5077762;28;20406;-78
2021/03/11 01:24:15;;;;;;;41.60;19.95;;;;;;;3.64;100.00;97233.28;5061155;28;20043;-78
2021/03/11 01:26:41;;;;;;;44.40;19.90;;;;;;;3.63;100.00;97226.34;5061325;28;20043;-78
2021/03/11 01:29:07;;;;;;;40.78;19.40;;;;;;;3.68;100.00;97215.59;5061111;28;20056;-78
2021/03/11 01:31:33;;;;;;;41.22;19.70;;;;;;;3.65;100.00;97203.56;5074438;28;20045;-79
2021/03/11 01:34:00;;;;;;;47.60;21.20;;;;;;;3.65;100.00;97208.13;5057218;28;20135;-78
2021/03/11 01:36:26;;;;;;;45.40;21.02;;;;;;;3.64;100.00;97207.31;5075522;28;20531;-79
2021/03/11 01:38:52;;;;;;;45.75;21.20;;;;;;;3.70;100.00;97216.09;5058859;28;20048;-78
2021/03/11 01:41:18;;;;;;;47.13;20.42;;;;;;;3.72;100.00;97201.38;5059811;28;20047;-78
2021/03/11 01:43:44;;;;;;;46.20;20.50;;;;;;;3.73;100.00;97186.91;5057441;28;20047;-78
2021/03/11 01:46:10;;;;;;;43.20;21.38;;;;;;;3.85;100.00;97188.41;5059263;28;20147;-79
2021/03/11 01:48:39;;;;;;;40.97;20.70;;;;;;;3.86;100.00;97173.94;5058048;28;20048;-78
2021/03/11 01:51:07;;;;;;;45.00;21.25;;;;;;;3.87;100.00;97172.88;5057611;28;20048;-77
2021/03/11 01:53:34;;;;;;;45.95;21.00;;;;;;;3.97;100.00;97164.72;5074789;28;20040;-79
2021/03/11 01:56:00;;;;;;;43.70;20.98;;;;;;;3.97;100.00;97159.38;5039991;28;20048;-77
2021/03/11 01:58:26;;;;;;;46.70;20.88;;;;;;;4.04;100.00;97159.84;5056989;28;20049;-79
2021/03/11 02:00:53;;;;;;;44.97;21.80;;;;;;;4.08;100.00;97142.91;5075976;28;20060;-78
2021/03/11 02:03:20;;;;;;;46.60;21.60;;;;;;;4.13;100.00;97142.06;5057833;28;20484;-79
2021/03/11 02:05:46;;;;;;;41.80;19.48;;;;;;;4.12;100.00;97140.47;5041459;28;20044;-79
2021/03/11 02:08:12;;;;;;;46.92;21.75;;;;;;;4.22;100.00;97125.06;5058312;28;20052;-79
2021/03/11 02:10:38;;;;;;;45.28;20.88;;;;;;;4.28;100.00;97131.16;5075532;28;20051;-79
2021/03/11 02:13:42;;;;;;;48.65;21.65;;;;;;;4.32;100.00;97129.50;5059974;28;20148;-79
2021/03/11 02:16:30;;;;;;;46.40;21.75;;;;;;;4.30;100.00;97107.56;5042576;28;20055;-77
2021/03/11 02:19:23;;;;;;;46.10;21.63;;;;;;;4.30;100.00;97094.97;5076986;28;20040;-78
2021/03/11 02:21:57;;;;;;;44.95;21.05;;;;;;;4.32;100.00;97095.47;5058190;28;20051;-78
2021/03/11 02:24:43;;;;;;;45.08;21.60;;;;;;;4.33;100.00;97089.03;5056344;28;20546;-78
2021/03/11 02:27:22;;;;;;;44.28;21.75;;;;;;;4.37;100.00;97081.22;5056362;28;20070;-77
2021/03/11 02:29:51;;;;;;;50.63;23.13;;;;;;;4.34;100.00;97066.50;5056751;28;20041;-78
2021/03/11 02:32:18;;;;;;;46.67;21.38;;;;;;;4.39;100.00;97065.63;5057208;28;20036;-78
2021/03/11 02:34:51;;;;;;;48.33;22.55;;;;;;;4.40;100.00;97059.19;5078763;28;20141;-78
2021/03/11 02:37:31;;;;;;;47.67;22.85;;;;;;;4.42;100.00;97048.97;5085652;28;20051;-78
2021/03/11 02:40:07;;;;;;;47.58;22.95;;;;;;;4.36;100.00;97039.44;5057923;28;20048;-78
2021/03/11 02:42:34;;;;;;;50.08;25.10;;;;;;;4.36;100.00;97044.78;5055993;28;20115;-78
2021/03/11 02:45:02;;;;;;;52.50;23.40;;;;;;;4.41;100.00;97034.78;5056487;28;20048;-80
2021/03/11 02:47:30;;;;;;;56.10;24.63;;;;;;;4.44;100.00;97027.28;5061645;28;20059;-80
2021/03/11 02:49:59;;;;;;;52.50;24.92;;;;;;;4.48;100.00;97029.06;5043889;28;20071;-79
2021/03/11 02:52:27;;;;;;;51.55;24.45;;;;;;;4.49;100.00;97017.25;5058850;28;20392;-79
2021/03/11 02:54:55;;;;;;;53.97;24.98;;;;;;;4.55;100.00;97021.47;5076061;28;20056;-79
2021/03/11 02:57:22;;;;;;;52.47;24.02;;;;;;;4.53;100.00;96998.72;5057401;28;20143;-80
2021/03/11 02:59:49;;;;;;;50.60;24.38;;;;;;;4.49;100.00;97009.22;5057715;28;20145;-79
2021/03/11 03:02:19;;;;;;;54.35;25.08;;;;;;;4.51;100.00;96993.66;5058632;28;20084;-79
2021/03/11 03:04:53;;;;;;;55.08;24.08;;;;;;;4.56;100.00;96993.59;5041435;28;20079;-79
2021/03/11 03:07:24;;;;;;;50.22;24.40;;;;;;;4.55;100.00;96983.94;5056855;28;20047;-78
2021/03/11 03:09:53;;;;;;;48.78;23.83;;;;;;;4.58;100.00;96971.84;5075435;28;20040;-79
2021/03/11 03:12:21;;;;;;;55.80;25.20;;;;;;;4.59;100.00;96968.88;5040162;28;20511;-80
2021/03/11 03:14:50;;;;;;;49.72;23.60;;;;;;;4.60;100.00;96961.59;5073651;28;20066;-79
2021/03/11 03:17:18;;;;;;;48.85;23.08;;;;;;;4.62;100.00;96949.50;5074083;28;20044;-78
2021/03/11 03:19:46;;;;;;;51.13;23.42;;;;;;;4.63;100.00;96959.16;5040843;28;20047;-78
2021/03/11 03:22:15;;;;;;;50.55;23.27;;;;;;;4.65;100.00;96946.25;5073953;28;20045;-77
2021/03/11 03:24:43;;;;;;;45.88;23.73;;;;;;;4.70;100.00;96946.16;5055508;28;20045;-78
2021/03/11 03:27:11;;;;;;;49.08;23.45;;;;;;;4.56;100.00;96934.63;5056289;28;20056;-78
2021/03/11 03:29:37;;;;;;;51.67;23.70;;;;;;;4.76;100.00;96941.50;5057691;28;20185;-79
2021/03/11 03:32:06;;;;;;;46.60;22.55;;;;;;;4.70;100.00;96926.59;5055655;28;20033;-79
2021/03/11 03:34:33;;;;;;;45.28;21.83;;;;;;;4.68;100.00;96918.84;5056793;28;20050;-78
2021/03/11 03:36:59;;;;;;;50.22;22.42;;;;;;;4.68;100.00;96908.13;5055778;28;20106;-78
2021/03/11 03:39:27;;;;;;;45.78;21.17;;;;;;;4.69;100.00;96906.25;5073689;28;20149;-80
2021/03/11 03:41:59;;;;;;;52.15;20.55;;;;;;;4.71;100.00;96896.81;5055936;28;20109;-79
2021/03/11 03:44:29;;;;;;;43.25;19.95;;;;;;;4.69;100.00;96904.38;5073366;28;20055;-79
2021/03/11 03:46:56;;;;;;;40.03;19.63;;;;;;;4.76;100.00;96893.25;5038202;28;20112;-79
2021/03/11 03:49:23;;;;;;;37.90;17.90;;;;;;;4.80;100.00;96905.78;5073988;28;20044;-79
2021/03/11 03:51:55;;;;;;;35.95;17.15;;;;;;;4.77;100.00;96910.94;5055824;28;20071;-78
2021/03/11 03:54:24;;;;;;;36.15;17.92;;;;;;;4.66;100.00;96899.59;5039119;28;20050;-77
2021/03/11 03:56:54;;;;;;;36.55;18.00;;;;;;;4.62;100.00;96903.94;5039035;28;20059;-79
2021/03/11 03:59:25;;;;;;;35.45;17.17;;;;;;;4.54;100.00;96893.13;5073801;28;20050;-78
2021/03/11 04:01:57;;;;;;;37.22;17.23;;;;;;;4.54;100.00;96882.41;5074571;28;20037;-78
2021/03/11 04:04:28;;;;;;;36.70;16.80;;;;;;;4.54;100.00;96893.13;5084311;28;20039;-79
2021/03/11 04:06:56;;;;;;;35.83;16.52;;;;;;;4.52;100.00;96877.31;5056578;28;20094;-79
2021/03/11 04:09:23;;;;;;;35.17;16.67;;;;;;;4.48;100.00;96880.88;5056249;28;20098;-78
2021/03/11 04:11:50;;;;;;;34.25;16.80;;;;;;;4.45;100.00;96868.88;5055873;28;20094;-79
2021/03/11 04:14:17;;;;;;;38.42;17.80;;;;;;;4.48;100.00;96856.78;5055388;28;20576;-79
2021/03/11 04:16:45;;;;;;;37.17;16.80;;;;;;;4.43;100.00;96838.09;5055279;28;20057;-78
2021/03/11 04:19:12;;;;;;;41.80;17.70;;;;;;;4.41;100.00;96841.84;5055784;28;20084;-78
2021/03/11 04:21:39;;;;;;;40.53;18.60;;;;;;;4.40;100.00;96840.28;5059016;28;20032;-79
2021/03/11 04:24:05;;;;;;;36.95;17.33;;;;;;;4.42;100.00;96837.31;5043193;28;20048;-79
2021/03/11 04:26:34;;;;;;;35.70;16.73;;;;;;;4.42;100.00;96829.25;5058781;28;20048;-79
2021/03/11 04:29:01;;;;;;;34.53;16.92;;;;;;;4.44;100.00;96819.03;5075084;28;20468;-78
2021/03/11 04:31:27;;;;;;;35.63;17.83;;;;;;;4.43;100.00;96806.75;5041645;28;20040;-78
2021/03/11 04:33:55;;;;;;;35.65;17.77;;;;;;;4.43;100.00;96806.75;5057651;28;20534;-78
2021/03/11 04:36:22;;;;;;;40.45;17.35;;;;;;;4.38;100.00;96796.94;5074080;28;20048;-78
2021/03/11 04:38:49;;;;;;;37.53;17.02;;;;;;;4.37;100.00;96791.84;5054417;28;20063;-78
2021/03/11 04:41:16;;;;;;;37.03;16.60;;;;;;;4.40;100.00;96775.97;5073034;28;20048;-78
2021/03/11 04:43:42;;;;;;;37.42;17.70;;;;;;;4.45;100.00;96779.66;5053296;28;20471;-78
2021/03/11 04:46:09;;;;;;;35.50;16.60;;;;;;;4.41;100.00;96790.94;5057952;28;20047;-79
2021/03/11 04:48:36;;;;;;;38.88;17.45;;;;;;;4.39;100.00;96766.34;5057945;28;20120;-79
2021/03/11 04:51:05;;;;;;;36.60;17.77;;;;;;;4.39;100.00;96760.19;5056502;28;20071;-79
2021/03/11 04:53:32;;;;;;;35.97;17.42;;;;;;;4.35;100.00;96743.13;5055690;28;20074;-79
2021/03/11 04:56:04;;;;;;;36.38;16.63;;;;;;;4.36;100.00;96739.38;5064871;28;20056;-78
2021/03/11 04:58:30;;;;;;;46.03;18.02;;;;;;;4.31;100.00;96737.56;5077052;28;20040;-78
2021/03/11 05:00:58;;;;;;;40.25;17.58;;;;;;;4.31;100.00;96731.44;5057682;28;20048;-79
2021/03/11 05:03:25;;;;;;;38.83;17.55;;;;;;;4.39;100.00;96728.03;5082764;28;20040;-80
2021/03/11 05:05:51;;;;;;;42.17;17.25;;;;;;;4.41;100.00;96715.16;5054733;28;20443;-78
2021/03/11 05:08:18;;;;;;;34.95;17.30;;;;;;;4.36;100.00;96708.00;5071732;28;20041;-78
2021/03/11 05:10:45;;;;;;;35.72;16.77;;;;;;;4.38;100.00;96711.19;5072031;28;20053;-78
2021/03/11 05:13:11;;;;;;;30.70;15.70;;;;;;;4.42;100.00;96700.66;5072506;28;20113;-79
2021/03/11 05:15:37;;;;;;;29.85;15.32;;;;;;;4.46;100.00;96698.19;5053958;28;20052;-76
2021/03/11 05:18:04;;;;;;;32.58;15.77;;;;;;;4.43;100.00;96696.91;5052207;28;20066;-78
2021/03/11 05:20:30;;;;;;;30.92;14.48;;;;;;;4.47;100.00;96697.88;5074672;28;20049;-79
2021/03/11 05:22:56;;;;;;;27.95;14.30;;;;;;;4.50;100.00;96699.97;5040877;28;20051;-80
2021/03/11 05:25:22;;;;;;;26.40;13.25;;;;;;;4.57;100.00;96688.84;5055935;28;20048;-80
2021/03/11 05:27:49;;;;;;;26.10;12.80;;;;;;;4.70;100.00;96688.81;5053656;28;20049;-81
2021/03/11 05:30:15;;;;;;;23.80;12.13;;;;;;;4.77;100.00;96681.19;5053468;28;20407;-79
2021/03/11 05:32:42;;;;;;;27.67;12.13;;;;;;;4.81;100.00;96673.31;5051744;28;20048;-79
2021/03/11 05:35:09;;;;;;;22.13;11.75;;;;;;;4.87;100.00;96678.28;5047022;28;20182;-79
2021/03/11 05:37:37;;;;;;;21.90;11.10;;;;;;;4.97;100.00;96680.75;5067156;28;20041;-79
2021/03/11 05:40:10;;;;;;;27.00;12.27;;;;;;;5.03;100.00;96674.16;5054017;28;20044;-79
2021/03/11 05:42:38;;;;;;;23.15;11.40;;;;;;;5.10;100.00;96657.66;5071902;28;20037;-80
2021/03/11 05:45:08;;;;;;;24.80;12.45;;;;;;;5.03;100.00;96662.66;5054397;28;20072;-79
2021/03/11 05:47:36;;;;;;;26.13;11.38;;;;;;;4.96;100.00;96646.97;5058074;28;20082;-79
2021/03/11 05:50:05;;;;;;;23.70;11.65;;;;;;;4.91;100.00;96652.44;5057380;28;20049;-80
2021/03/11 05:52:31;;;;;;;22.13;11.32;;;;;;;4.90;100.00;96642.78;5058313;28;20428;-79
2021/03/11 05:54:58;;;;;;;23.30;11.40;;;;;;;5.00;100.00;96647.16;5057719;28;20631;-80
2021/03/11 05:57:43;;;;;;;21.92;11.77;;;;;;;5.00;100.00;96631.88;5075616;28;20051;-78
2021/03/11 06:00:11;;;;;;;22.45;11.43;;;;;;;5.03;100.00;96631.22;5058218;28;20052;-80
2021/03/11 06:02:39;;;;;;;23.73;11.43;;;;;;;5.09;100.00;96623.88;5058289;28;20143;-80
2021/03/11 06:05:06;;;;;;;24.63;11.45;;;;;;;5.11;100.00;96631.63;5058165;28;20079;-80
2021/03/11 06:07:33;;;;;;;22.33;11.38;;;;;;;5.17;100.00;96608.94;5076300;28;20547;-81
2021/03/11 06:10:04;;;;;;;24.60;11.23;;;;;;;5.20;100.00;96605.66;5075324;28;20052;-80
2021/03/11 06:12:31;;;;;;;22.15;11.10;;;;;;;5.22;100.00;96598.88;5059430;28;20041;-80
2021/03/11 06:15:10;;;;;;;27.63;12.38;;;;;;;5.23;100.00;96603.16;5077832;28;20060;-81
2021/03/11 06:17:38;;;;;;;22.70;11.68;;;;;;;5.23;100.00;96599.69;5060566;28;20135;-80
2021/03/11 06:20:06;;;;;;;26.60;12.52;;;;;;;5.22;100.00;96596.19;5063663;28;20048;-80
2021/03/11 06:22:33;;;;;;;25.38;12.52;;;;;;;5.27;100.00;96588.03;5066193;28;20036;-74
2021/03/11 06:25:02;;;;;;;24.90;11.07;;;;;;;5.28;100.00;96583.44;5075892;28;20040;-79
2021/03/11 06:27:28;;;;;;;27.85;12.20;;;;;;;5.31;100.00;96575.59;5095324;28;20044;-80
2021/03/11 06:29:58;;;;;;;37.60;12.32;;;;;;;5.36;100.00;96577.34;5096281;28;20129;-80
2021/03/11 06:32:25;;;;;;;47.88;12.45;;;;;;;5.41;100.00;96569.97;5078389;28;20119;-80
2021/03/11 06:34:51;;;;;;;27.30;11.80;;;;;;;5.51;100.00;96560.84;5087648;28;20036;-81
2021/03/11 06:37:42;;;;;;;25.23;11.88;;;;;;;5.59;100.00;96563.59;5098764;28;20556;-81
2021/03/11 06:40:35;;;;;;;21.90;12.07;;;;;;;5.65;100.00;96559.66;5081033;28;20123;-81
2021/03/11 06:43:13;;;;;;;26.42;12.55;;;;;;;5.73;100.00;96557.34;5041111;28;20044;-81
2021/03/11 06:45:40;;;;;;;22.27;11.98;;;;;;;5.76;100.00;96554.81;5068431;28;20058;-81
2021/03/11 06:48:28;;;;;;;23.02;11.45;;;;;;;5.75;100.00;96523.69;5080962;28;20069;-80
2021/03/11 06:51:03;;;;;;;25.02;11.90;;;;;;;5.77;100.00;96540.28;5079890;28;20032;-80
2021/03/11 06:53:31;;;;;;;21.30;10.88;;;;;;;5.85;100.00;96536.06;5079184;28;20097;-80
2021/03/11 06:56:19;;;;;;;27.05;11.30;;;;;;;5.96;100.00;96519.34;5096582;28;20055;-81
2021/03/11 06:59:00;;;;;;;22.40;11.07;;;;;;;5.98;100.00;96530.59;5089951;28;20438;-81
2021/03/11 07:01:28;;;;;;;21.30;10.90;;;;;;;6.02;100.00;96528.84;5058195;28;20415;-80
2021/03/11 07:03:55;;;;;;;19.80;10.05;;;;;;;6.14;100.00;96529.03;5076498;28;20040;-81
2021/03/11 07:06:30;;;;;;;19.25;9.88;;;;;;;6.23;100.00;96518.31;5058635;28;20055;-80
2021/03/11 07:09:00;;;;;;;19.70;8.82;;;;;;;6.33;100.00;96517.22;5058904;28;20087;-80
2021/03/11 07:11:27;;;;;;;25.10;10.60;;;;;;;6.42;100.00;96504.56;5061826;28;20346;-78
2021/03/11 07:13:55;;;;;;;20.52;9.00;;;;;;;6.43;100.00;96519.59;5060986;28;20049;-80
2021/03/11 07:16:23;;;;;;;21.40;9.10;;;;;;;6.50;100.00;96518.03;5047685;28;20045;-79
2021/03/11 07:19:17;;;;;;;20.30;9.73;;;;;;;6.55;100.00;96530.53;5041896;28;20040;-80
2021/03/11 07:21:44;;;;;;;18.70;8.82;;;;;;;6.55;100.00;96525.16;5058297;28;20040;-81
2021/03/11 07:24:13;;;;;;;18.63;9.25;;;;;;;6.61;100.00;96526.56;5060372;28;20054;-79
2021/03/11 07:26:56;;;;;;;17.70;8.80;;;;;;;6.67;100.00;96517.22;5077744;28;20423;-79
2021/03/11 07:29:22;;;;;;;16.27;9.05;;;;;;;6.69;100.00;96499.66;5059076;28;20423;-79
2021/03/11 07:31:56;;;;;;;17.00;8.68;;;;;;;6.75;100.00;96513.75;5059009;28;20060;-79
2021/03/11 07:34:27;;;;;;;17.65;8.63;;;;;;;6.78;100.00;96507.75;5057727;28;20045;-80
2021/03/11 07:36:57;;;;;;;17.40;9.27;;;;;;;6.83;100.00;96500.31;5041061;28;20439;-78
2021/03/11 07:39:39;;;;;;;16.95;8.85;;;;;;;6.84;100.00;96496.50;5058005;28;20051;-78
2021/03/11 07:42:06;;;;;;;18.52;8.63;;;;;;;6.74;100.00;96515.66;5060141;28;20379;-79
2021/03/11 07:44:35;;;;;;;15.98;8.30;;;;;;;6.72;100.00;96525.13;5059848;28;20545;-79
2021/03/11 07:47:04;;;;;;;18.52;9.10;;;;;;;6.73;100.00;96532.09;5042199;28;20131;-81
2021/03/11 07:49:32;;;;;;;19.65;9.25;;;;;;;6.74;100.00;96525.59;5058788;28;20091;-79
2021/03/11 07:52:02;;;;;;;17.00;8.75;;;;;;;6.76;100.00;96507.28;5058668;28;20388;-82
2021/03/11 07:54:32;;;;;;;19.55;9.38;;;;;;;6.79;100.00;96512.78;5060329;28;20047;-79
2021/03/11 07:56:59;;;;;;;18.48;8.98;;;;;;;6.88;100.00;96502.03;5058329;28;20045;-79
2021/03/11 07:59:26;;;;;;;20.83;8.77;;;;;;;6.90;100.00;96497.13;5042346;28;20079;-80
2021/03/11 08:02:09;;;;;;;15.48;8.90;;;;;;;7.11;100.00;96479.19;5075066;28;20666;-78
2021/03/11 08:04:41;;;;;;;17.17;8.80;;;;;;;7.17;100.00;96495.97;5058574;28;20055;-82
2021/03/11 08:07:21;;;;;;;17.08;8.00;;;;;;;7.22;100.00;96501.19;5075714;28;20058;-81
2021/03/11 08:09:49;;;;;;;16.75;7.85;;;;;;;7.25;100.00;96522.09;5043312;28;20048;-79
2021/03/11 08:12:33;;;;;;;17.27;8.75;;;;;;;7.26;100.00;96510.97;5059261;28;20538;-81
2021/03/11 08:15:03;;;;;;;17.33;8.85;;;;;;;7.24;100.00;96515.91;5077313;28;20071;-80
2021/03/11 08:17:39;;;;;;;22.38;9.70;;;;;;;7.28;100.00;96529.50;5078279;28;20411;-82
2021/03/11 08:20:08;;;;;;;20.67;9.27;;;;;;;7.34;100.00;96514.75;5080044;28;20082;-81
2021/03/11 08:22:57;;;;;;;15.98;8.38;;;;;;;7.40;100.00;96516.19;5056506;28;20036;-80
2021/03/11 08:25:38;;;;;;;15.95;8.75;;;;;;;7.46;100.00;96479.88;5041234;28;20052;-82
2021/03/11 08:28:08;;;;;;;18.98;9.05;;;;;;;7.56;100.00;96479.53;5076485;28;20082;-81
2021/03/11 08:30:41;;;;;;;22.75;9.48;;;;;;;7.57;100.00;96475.72;5058466;28;20052;-83
2021/03/11 08:33:09;;;;;;;15.05;8.25;;;;;;;7.54;100.00;96450.22;5076219;28;20036;-81
2021/03/11 08:35:41;;;;;;;17.05;8.70;;;;;;;7.57;100.00;96470.31;5042807;28;20150;-82
2021/03/11 08:38:19;;;;;;;16.45;8.13;;;;;;;7.59;100.00;96486.19;5076897;28;20101;-83
2021/03/11 08:40:53;;;;;;;21.38;9.55;;;;;;;7.63;100.00;96474.44;5058809;28;20605;-81
2021/03/11 08:43:37;;;;;;;19.15;9.52;;;;;;;7.60;100.00;96479.66;5059039;28;20044;-81
2021/03/11 08:46:49;;;;;;;18.02;9.00;;;;;;;7.62;100.00;96443.22;5076504;28;20036;-80
2021/03/11 08:49:35;;;;;;;22.05;9.25;;;;;;;7.65;100.00;96456.03;5058590;28;20032;-80
2021/03/11 08:52:02;;;;;;;17.17;8.98;;;;;;;7.67;100.00;96453.00;5058707;28;20374;-81
2021/03/11 08:54:30;;;;;;;20.50;9.00;;;;;;;7.72;100.00;96459.00;5076384;28;20056;-81
2021/03/11 08:56:57;;;;;;;18.50;9.05;;;;;;;7.78;100.00;96459.63;5041127;28;20044;-80
2021/03/11 08:59:47;;;;;;;15.25;8.65;;;;;;;7.77;100.00;96455.34;5057493;28;20714;-79
2021/03/11 09:02:30;;;;;;;17.38;9.05;;;;;;;7.82;100.00;96469.41;5074904;28;20040;-79
2021/03/11 09:04:56;;;;;;;21.40;8.90;;;;;;;7.93;100.00;96470.63;5056787;28;20049;-78
2021/03/11 09:07:35;;;;;;;17.70;9.02;;;;;;;7.99;100.00;96490.09;5074686;28;20047;-80
2021/03/11 09:10:03;;;;;;;18.23;8.55;;;;;;;7.93;100.00;96483.28;5041219;28;20450;-80
2021/03/11 09:12:37;;;;;;;21.00;8.75;;;;;;;8.07;100.00;96489.25;5056491;28;20068;-80
2021/03/11 09:15:08;;;;;;;15.13;8.60;;;;;;;8.04;100.00;96468.34;5054410;28;20075;-79
2021/03/11 09:17:36;;;;;;;17.23;8.63;;;;;;;8.04;100.00;96481.81;5071226;28;20068;-79
2021/03/11 09:20:11;;;;;;;16.73;9.18;;;;;;;8.06;100.00;96458.03;5041033;28;20179;-79
2021/03/11 09:22:40;;;;;;;14.33;8.13;;;;;;;8.06;100.00;96474.97;5058514;28;20045;-78
2021/03/11 09:25:25;;;;;;;19.02;8.82;;;;;;;8.20;100.00;96458.56;5042277;28;20052;-80
2021/03/11 09:28:01;;;;;;;15.10;8.43;;;;;;;8.10;100.00;96467.81;5058712;28;20041;-79
2021/03/11 09:30:33;;;;;;;16.40;8.77;;;;;;;8.20;100.00;96477.44;5042334;28;20052;-78
2021/03/11 09:33:17;;;;;;;14.30;8.50;;;;;;;8.17;100.00;96456.53;5058828;28;20160;-79
2021/03/11 09:35:44;;;;;;;15.77;8.00;;;;;;;8.01;100.00;96448.22;5061033;28;20048;-79
2021/03/11 09:38:12;;;;;;;16.15;8.60;;;;;;;8.00;100.00;96452.03;5050293;28;20040;-79
2021/03/11 09:40:43;;;;;;;16.50;8.00;;;;;;;8.12;100.00;96435.94;5076647;28;20706;-79
2021/03/11 09:43:10;;;;;;;15.73;7.85;;;;;;;8.12;100.00;96457.50;5076353;28;20032;-79
2021/03/11 09:46:12;;;;;;;20.05;8.70;;;;;;;8.13;100.00;96447.50;5058049;28;20055;-79
2021/03/11 09:48:44;;;;;;;15.23;8.40;;;;;;;8.25;100.00;96447.59;5043716;28;20076;-80
2021/03/11 09:51:11;;;;;;;18.00;7.88;;;;;;;8.35;100.00;96449.13;5061639;28;20040;-79
2021/03/11 09:53:39;;;;;;;13.90;7.57;;;;;;;8.40;100.00;96433.53;5045001;28;20044;-78
2021/03/11 09:56:09;;;;;;;19.33;7.30;;;;;;;8.43;100.00;96440.19;5059778;28;20132;-78
2021/03/11 09:58:42;;;;;;;13.00;7.60;;;;;;;8.42;100.00;96438.59;5075965;28;20153;-78
2021/03/11 10:01:08;;;;;;;17.30;7.45;;;;;;;8.44;100.00;96422.91;5056860;28;20050;-78
2021/03/11 10:03:35;;;;;;;16.42;7.88;;;;;;;8.41;100.00;96426.25;5056848;28;20098;-79
2021/03/11 10:06:06;;;;;;;15.18;7.32;;;;;;;8.52;100.00;96430.09;5040437;28;20143;-78
2021/03/11 10:08:38;;;;;;;16.67;7.45;;;;;;;8.66;100.00;96415.22;5055950;28;20127;-78
2021/03/11 10:11:10;;;;;;;13.52;7.65;;;;;;;8.57;100.00;96411.00;5075666;28;20044;-78
2021/03/11 10:13:51;;;;;;;15.10;8.00;;;;;;;8.40;100.00;96409.28;5074137;28;20064;-78
2021/03/11 10:16:32;;;;;;;17.67;7.90;;;;;;;8.30;100.00;96392.72;5074056;28;20045;-77
2021/03/11 10:19:05;;;;;;;12.77;7.03;;;;;;;8.21;100.00;96391.97;5057369;28;20059;-78
2021/03/11 10:21:44;;;;;;;14.93;7.60;;;;;;;8.28;100.00;96405.75;5041428;28;20056;-78
2021/03/11 10:24:12;;;;;;;16.75;7.85;;;;;;;8.24;100.00;96400.16;5057113;28;20045;-78
2021/03/11 10:26:39;;;;;;;12.95;6.93;;;;;;;8.15;100.00;96394.06;5072706;22;20041;-78
2021/03/11 10:29:08;;;;;;;17.25;7.50;;;;;;;8.21;100.00;96383.88;5058282;28;20232;-78
2021/03/11 10:31:36;;;;;;;12.32;7.28;;;;;;;8.18;100.00;96376.47;5073354;28;20364;-78
2021/03/11 10:34:07;;;;;;;12.90;6.75;;;;;;;8.25;100.00;96352.44;5057075;28;20412;-77
2021/03/11 10:36:35;;;;;;;13.02;7.07;;;;;;;8.27;100.00;96358.31;5056797;28;20060;-79
2021/03/11 10:39:04;;;;;;;15.32;7.88;;;;;;;8.34;100.00;96347.78;5057212;28;20045;-79
2021/03/11 10:41:32;;;;;;;16.20;7.47;;;;;;;8.33;100.00;96327.34;5056801;28;20048;-79
2021/03/11 10:44:12;;;;;;;15.13;6.50;;;;;;;8.41;100.00;96327.28;5040563;28;20052;-79
2021/03/11 10:46:40;;;;;;;11.80;7.20;;;;;;;8.43;100.00;96324.22;5056623;28;20066;-79
2021/03/11 10:49:07;;;;;;;15.20;7.18;;;;;;;8.40;100.00;96306.81;5075432;28;20045;-78
2021/03/11 10:51:35;;;;;;;14.80;6.68;;;;;;;8.43;100.00;96325.03;5060334;28;20074;-78
2021/03/11 10:54:02;;;;;;;13.10;7.00;;;;;;;8.49;100.00;96306.72;5061473;28;20224;-79
2021/03/11 10:56:28;;;;;;;11.50;6.43;;;;;;;8.48;100.00;96329.41;5061225;28;20055;-79
2021/03/11 10:59:05;;;;;;;13.52;6.13;;;;;;;8.55;100.00;96322.34;5062494;28;20051;-78
2021/03/11 11:01:33;;;;;;;12.52;6.22;;;;;;;8.65;100.00;96318.44;5040291;28;20110;-78
2021/03/11 11:04:00;;;;;;;12.80;6.53;;;;;;;8.71;100.00;96304.41;5058252;28;20044;-78
2021/03/11 11:06:29;;;;;;;10.90;6.00;;;;;;;8.81;100.00;96340.94;5042026;28;20389;-78
2021/03/11 11:08:56;;;;;;;10.93;6.15;;;;;;;8.82;100.00;96347.13;5058049;28;20105;-78
2021/03/11 11:11:23;;;;;;;11.60;6.00;;;;;;;8.86;100.00;96354.22;5055793;28;20082;-78
2021/03/11 11:13:50;;;;;;;13.43;6.78;;;;;;;8.77;100.00;96354.31;5056940;28;20048;-78
2021/03/11 11:16:16;;;;;;;12.10;5.65;;;;;;;8.75;100.00;96343.06;5054818;28;20175;-78
2021/03/11 11:18:43;;;;;;;14.02;7.00;;;;;;;8.82;100.00;96347.94;5056228;28;20041;-79
2021/03/11 11:21:11;;;;;;;12.52;6.45;;;;;;;8.99;100.00;96342.31;5073151;28;20105;-78
2021/03/11 11:23:37;;;;;;;12.43;6.00;;;;;;;9.14;100.00;96330.06;5056671;28;20147;-78
2021/03/11 11:26:03;;;;;;;11.32;5.82;;;;;;;9.18;100.00;96328.28;5075176;28;20052;-78
2021/03/11 11:28:30;;;;;;;10.70;5.80;;;;;;;9.17;100.00;96314.00;5098304;22;20048;-77
2021/03/11 11:30:56;;;;;;;10.07;5.90;;;;;;;9.19;100.00;96337.94;5091131;28;20055;-76
2021/03/11 11:33:22;;;;;;;10.82;5.40;;;;;;;9.32;100.00;96334.91;5088814;28;20050;-76